Latest Coastal Weather Observations for Frederick Reef

IDQ60701

Issued at 6:05 pm EST Sunday 21 September 2014 (issued every 10 minutes, with the page automatically refreshed every 10 minutes)

About coastal observations | Map of coastal stations | Coastal observations for QLD | Marine services | Other Formats
Station Details ID: 200701 Name: FREDERICK REEF Lat: -20.94 Lon: 154.40 Height: 4.9 m
Data from the previous 72 hours. | See also: Recent months for locations in Queensland
Date/Time
EST
Temp

°C
Wind Pressure Rain
since 9am
mm
Weather Cloud Vis
km
Sea
Height
m
Swell
Dir
 
Speed
knots
Gust
knots
hPa Trend Height
m
Period
s
Dir
21/06:00pm 22.0 ESE 29 32 1019.3 - - - - - - - - -
21/05:30pm 22.0 ESE 27 31 1019.0 - - - - - - - - -
21/05:00pm 21.9 ESE 28 31 1018.8 - - - - - - - - -
21/04:30pm 22.1 ESE 27 31 1018.9 - - - - - - - - -
21/04:00pm 22.0 ESE 27 30 1018.9 - - - - - - - - -
21/03:30pm 22.0 ESE 27 30 1018.7 - - - - - - - - -
21/03:00pm 22.2 ESE 27 30 1018.7 - - - - - - - - -
21/02:30pm 22.1 ESE 25 28 1018.6 - - - - - - - - -
21/02:00pm 22.1 ESE 27 30 1018.7 - - - - - - - - -
21/01:30pm 22.0 ESE 26 29 1018.8 - - - - - - - - -
21/01:00pm 22.1 ESE 25 30 1019.1 - - - - - - - - -
21/12:30pm 21.9 ESE 26 29 1019.5 - - - - - - - - -
21/12:00pm 21.9 ESE 26 30 1020.0 - - - - - - - - -
21/11:30am 21.9 ESE 26 29 1020.3 - - - - - - - - -
21/11:00am 21.9 ESE 26 31 1020.3 - - - - - - - - -
21/10:30am 21.9 ESE 26 29 1020.9 - - - - - - - - -
21/10:00am 22.1 ESE 25 29 1020.9 - - - - - - - - -
21/09:30am 21.8 ESE 25 31 1021.0 - - - - - - - - -
21/09:00am 22.1 ESE 25 29 1020.9 - - - - - - - - -
21/08:30am 21.8 ESE 27 30 1020.6 - - - - - - - - -
21/08:00am 21.9 ESE 25 29 1020.7 - - - - - - - - -
21/07:30am 21.9 ESE 26 29 1020.4 - - - - - - - - -
21/07:00am 21.7 ESE 25 29 1020.0 - - - - - - - - -
21/06:30am 21.6 ESE 25 30 1019.4 - - - - - - - - -
21/06:00am 21.5 ESE 25 29 1019.0 - - - - - - - - -
21/05:30am 21.3 ESE 23 27 1018.7 - - - - - - - - -
21/05:00am 21.4 ESE 23 27 1018.3 - - - - - - - - -
21/04:30am 21.3 ESE 23 26 1018.3 - - - - - - - - -
21/04:00am 21.4 ESE 23 27 1018.1 - - - - - - - - -
21/03:30am 21.4 ESE 22 25 1017.8 - - - - - - - - -
21/03:00am 21.3 ESE 22 24 1017.6 - - - - - - - - -
21/02:30am 21.5 E 21 25 1017.8 - - - - - - - - -
21/02:00am 21.6 ESE 21 24 1018.0 - - - - - - - - -
21/01:30am 21.5 ESE 23 26 1018.3 - - - - - - - - -
21/01:00am 21.4 ESE 22 26 1018.4 - - - - - - - - -
21/12:30am 21.6 ESE 22 24 1018.8 - - - - - - - - -
21/12:00am 21.7 ESE 21 24 1019.2 - - - - - - - - -
 
Date/Time
EST
Temp

°C
Wind Pressure Rain
since 9am
mm
Weather Cloud Vis
km
Sea
Height
m
Swell
Dir
 
Speed
knots
Gust
knots
hPa Trend Height
m
Period
s
Dir
20/11:30pm 21.6 ESE 22 26 1019.5 - - - - - - - - -
20/11:00pm 21.7 ESE 23 26 1019.7 - - - - - - - - -
20/10:30pm 21.9 ESE 22 25 1019.7 - - - - - - - - -
20/10:00pm 22.0 ESE 22 25 1019.8 - - - - - - - - -
20/09:30pm 22.0 ESE 21 25 1019.8 - - - - - - - - -
20/09:00pm 22.0 ESE 21 24 1019.8 - - - - - - - - -
20/08:30pm 22.0 ESE 20 24 1019.5 - - - - - - - - -
20/08:00pm 22.1 ESE 20 24 1019.1 - - - - - - - - -
20/07:30pm 22.1 ESE 18 21 1019.0 - - - - - - - - -
20/07:00pm 22.0 ESE 20 23 1018.4 - - - - - - - - -
20/06:30pm 22.2 ESE 18 20 1018.1 - - - - - - - - -
20/06:00pm 22.1 ESE 18 21 1017.7 - - - - - - - - -
20/05:30pm 22.1 ESE 16 19 1017.4 - - - - - - - - -
20/05:00pm 22.1 ESE 16 19 1017.0 - - - - - - - - -
20/04:30pm 22.1 SE 17 19 1016.8 - - - - - - - - -
20/04:00pm 22.1 SE 17 19 1016.5 - - - - - - - - -
20/03:30pm 22.1 ESE 17 19 1016.4 - - - - - - - - -
20/03:00pm 22.0 SE 17 18 1016.3 - - - - - - - - -
20/02:30pm 22.1 ESE 16 18 1016.3 - - - - - - - - -
20/02:00pm 22.1 ESE 17 18 1016.5 - - - - - - - - -
20/01:30pm 22.4 ESE 16 19 1016.6 - - - - - - - - -
20/01:00pm 22.1 ESE 17 19 1017.0 - - - - - - - - -
20/12:30pm 22.1 ESE 17 19 1017.3 - - - - - - - - -
20/12:00pm 22.3 ESE 17 20 1017.5 - - - - - - - - -
20/11:30am 22.0 ESE 17 19 1017.7 - - - - - - - - -
20/11:00am 22.0 ESE 18 20 1018.0 - - - - - - - - -
20/10:30am 22.2 ESE 18 20 1018.3 - - - - - - - - -
20/10:00am 22.2 ESE 19 22 1018.7 - - - - - - - - -
20/09:30am 22.2 ESE 19 20 1018.8 - - - - - - - - -
20/09:00am 22.0 ESE 17 19 1018.8 - - - - - - - - -
20/08:30am 22.4 ESE 18 20 1018.5 - - - - - - - - -
20/08:00am 22.5 ESE 17 19 1018.3 - - - - - - - - -
20/07:30am 22.3 ESE 17 19 1018.0 - - - - - - - - -
20/07:00am 22.0 ESE 17 19 1017.7 - - - - - - - - -
20/06:30am 22.1 SE 17 19 1017.4 - - - - - - - - -
20/06:00am 22.1 SE 17 19 1017.2 - - - - - - - - -
20/05:30am 22.0 SE 16 18 1016.8 - - - - - - - - -
20/05:04am 22.2 SE 15 17 1016.7 - - - - - - - - -
20/05:00am 22.1 SE 1 3 1016.6 - - - - - - - - -
20/04:30am 21.8 ESE 1 3 1016.4 - - - - - - - - -
20/04:00am 21.8 SE 1 3 1016.2 - - - - - - - - -
20/03:30am 22.1 SE 1 3 1016.0 - - - - - - - - -
20/03:00am 22.0 CALM 0 3 1016.1 - - - - - - - - -
20/02:30am 22.1 CALM 0 2 1016.3 - - - - - - - - -
20/02:00am 22.1 CALM 0 2 1016.5 - - - - - - - - -
20/01:30am 22.3 ESE 1 3 1016.9 - - - - - - - - -
20/01:00am 22.4 CALM 0 3 1017.2 - - - - - - - - -
20/12:30am 22.5 CALM 0 2 1017.8 - - - - - - - - -
20/12:00am 22.6 ESE 1 3 1018.5 - - - - - - - - -
 
Date/Time
EST
Temp

°C
Wind Pressure Rain
since 9am
mm
Weather Cloud Vis
km
Sea
Height
m
Swell
Dir
 
Speed
knots
Gust
knots
hPa Trend Height
m
Period
s
Dir
19/11:30pm 22.3 CALM 0 2 1018.8 - - - - - - - - -
19/11:00pm 22.2 SE 1 3 1019.0 - - - - - - - - -
19/10:30pm 22.4 CALM 0 2 1019.0 - - - - - - - - -
19/10:00pm 22.5 CALM 0 2 1019.1 - - - - - - - - -
19/09:30pm 22.5 ESE 1 3 1019.1 - - - - - - - - -
19/09:00pm 22.6 ESE 1 3 1018.7 - - - - - - - - -
19/08:30pm 22.3 ESE 1 3 1018.6 - - - - - - - - -
19/08:00pm 22.7 E 1 3 1018.5 - - - - - - - - -
19/07:30pm 22.8 ESE 1 2 1018.2 - - - - - - - - -
19/07:00pm 22.6 ESE 1 3 1017.8 - - - - - - - - -
19/06:30pm 22.5 ESE 1 3 1017.5 - - - - - - - - -
19/06:00pm 22.5 ESE 2 20 1017.2 - - - - - - - - -
19/05:30pm 22.5 SE 17 19 1016.7 - - - - - - - - -
19/05:00pm 22.5 SE 16 18 1016.6 - - - - - - - - -
19/04:30pm 22.6 SE 15 17 1016.3 - - - - - - - - -
19/04:00pm 22.5 SE 15 17 1016.2 - - - - - - - - -
19/03:30pm 22.8 SE 16 18 1016.0 - - - - - - - - -
19/03:00pm 22.9 SE 15 16 1015.8 - - - - - - - - -
19/02:30pm 22.5 SE 15 17 1015.9 - - - - - - - - -
19/02:00pm 22.7 SE 15 16 1016.1 - - - - - - - - -
19/01:30pm 22.7 SE 14 16 1016.3 - - - - - - - - -
19/01:00pm 22.5 SE 15 17 1016.8 - - - - - - - - -
19/12:30pm 22.6 SE 16 17 1017.2 - - - - - - - - -
19/12:00pm 22.7 SE 15 17 1017.6 - - - - - - - - -
19/11:30am 22.5 SE 15 17 1018.0 - - - - - - - - -
19/11:00am 22.8 SE 15 16 1018.5 - - - - - - - - -
19/10:30am 22.6 SE 15 16 1018.9 - - - - - - - - -
19/10:00am 22.5 SE 13 14 1019.0 - - - - - - - - -
19/09:30am 22.6 SE 13 15 1019.1 - - - - - - - - -
19/09:00am 22.6 SSE 14 15 1018.9 - - - - - - - - -
19/08:30am 22.8 SE 13 14 1019.0 - - - - - - - - -
19/08:00am 22.6 SSE 13 15 1018.9 - - - - - - - - -
19/07:30am 22.4 SSE 13 15 1018.5 - - - - - - - - -
19/07:00am 22.4 SSE 12 14 1018.5 - - - - - - - - -
19/06:30am 22.5 SE 12 14 1018.3 - - - - - - - - -
19/06:00am 22.5 SE 11 13 1018.1 - - - - - - - - -
19/05:30am 22.3 SE 11 13 1017.7 - - - - - - - - -
19/05:00am 22.2 CALM 0 3 1017.4 - - - - - - - - -
19/04:30am 22.3 CALM 0 2 1017.2 - - - - - - - - -
19/04:00am 22.2 CALM 0 3 1017.2 - - - - - - - - -
19/03:30am 22.4 CALM 0 2 1017.1 - - - - - - - - -
19/03:00am 22.3 CALM 0 1 1017.3 - - - - - - - - -
19/02:30am 22.6 CALM 0 2 1017.3 - - - - - - - - -
19/02:00am 22.5 CALM 0 3 1017.3 - - - - - - - - -
19/01:30am 22.5 CALM 0 2 1017.5 - - - - - - - - -
19/01:00am 22.6 CALM 0 1 1017.7 - - - - - - - - -
19/12:30am 22.5 CALM 0 2 1017.7 - - - - - - - - -
19/12:00am 22.5 CALM 0 2 1018.0 - - - - - - - - -
 
Date/Time
EST
Temp

°C
Wind Pressure Rain
since 9am
mm
Weather Cloud Vis
km
Sea
Height
m
Swell
Dir
 
Speed
knots
Gust
knots
hPa Trend Height
m
Period
s
Dir
18/11:30pm 22.6 CALM 0 2 1018.2 - - - - - - - - -
18/11:00pm 22.7 CALM 0 3 1018.4 - - - - - - - - -
18/10:30pm 22.8 CALM 0 3 1018.4 - - - - - - - - -
18/10:00pm 22.9 CALM 0 3 1018.7 - - - - - - - - -
18/09:30pm 22.7 CALM 0 3 1018.6 - - - - - - - - -
18/09:00pm 22.9 CALM 0 3 1018.5 - - - - - - - - -
18/08:30pm 22.7 CALM 0 3 1018.3 - - - - - - - - -
18/08:00pm 22.8 SSE 1 3 1018.1 - - - - - - - - -
18/07:30pm 22.9 CALM 0 3 1017.8 - - - - - - - - -
18/07:00pm 22.8 S 1 3 1017.3 - - - - - - - - -
18/06:30pm 23.1 S 1 3 1016.9 - - - - - - - - -

Other Formats:

Comma delimited format used in spreadsheet applications
http://www.bom.gov.au/fwo/IDQ60701/IDQ60701.94393.axf

JavaScript Object Notation format (JSON) in row-major order
http://www.bom.gov.au/fwo/IDQ60701/IDQ60701.94393.json